Time;durP1;ratioP1;P1;durP2;ratioP2;P2;SDS_P1;SDS_P2;PMS_P1;PMS_P2;Temp;Humidity;BMP_temperature;BMP_pressure;BME280_temperature;BME280_humidity;BME280_pressure;Samples;Min_cycle;Max_cycle;Signal;HPM_P1;HPM_P2
2022/01/02 00:01:36;;;;;;;;;;;;;;;21.94;29.27;98282.41;4826299;29;1048;-76
2022/01/02 00:04:02;;;;;;;;;;;;;;;22.25;29.20;98285.72;4810191;29;1911;-76
2022/01/02 00:06:28;;;;;;;;;;;;;;;21.65;29.84;98287.09;4826415;29;1042;-76
2022/01/02 00:08:55;;;;;;;;;;;;;;;22.19;29.13;98298.03;4825879;29;990;-76
2022/01/02 00:11:21;;;;;;;;;;;;;;;22.12;29.29;98296.16;4810792;29;1170;-76
2022/01/02 00:13:47;;;;;;;;;;;;;;;21.90;29.34;98303.53;4824692;29;1035;-76
2022/01/02 00:16:15;;;;;;;;;;;;;;;21.92;29.62;98301.88;4810184;29;984;-76
2022/01/02 00:18:48;;;;;;;;;;;;;;;21.89;29.61;98297.09;4807965;29;1138;-76
2022/01/02 00:21:14;;;;;;;;;;;;;;;21.74;29.76;98307.94;4782474;30;958;-76
2022/01/02 00:24:01;;;;;;;;;;;;;;;22.56;28.17;98305.22;4771633;30;1915;-76
2022/01/02 00:26:36;;;;;;;;;;;;;;;21.89;29.16;98305.59;4766591;29;1031;-76
2022/01/02 00:29:05;;;;;;;;;;;;;;;21.30;29.90;98309.31;4789306;29;1513;-75
2022/01/02 00:31:31;;;;;;;;;;;;;;;21.60;29.79;98308.25;4789927;29;1074;-76
2022/01/02 00:33:57;;;;;;;;;;;;;;;21.88;29.54;98306.03;4789455;29;1090;-76
2022/01/02 00:36:25;;;;;;;;;;;;;;;22.34;29.70;98300.09;4789588;29;1055;-76
2022/01/02 00:38:51;;;;;;;;;;;;;;;22.03;30.67;98295.97;4789579;29;975;-76
2022/01/02 00:41:18;;;;;;;;;;;;;;;22.48;30.66;98310.25;4789420;29;944;-76
2022/01/02 00:43:47;;;;;;;;;;;;;;;22.47;31.02;98296.53;4774203;29;1907;-74
2022/01/02 00:46:13;;;;;;;;;;;;;;;22.97;30.64;98300.91;4823734;29;995;-73
2022/01/02 00:48:39;;;;;;;;;;;;;;;21.99;31.75;98306.56;4843975;29;963;-73
2022/01/02 00:51:05;;;;;;;;;;;;;;;22.66;30.18;98304.13;4843627;29;1021;-73
2022/01/02 00:53:34;;;;;;;;;;;;;;;22.19;30.24;98303.72;4854375;29;1036;-73
2022/01/02 00:55:59;;;;;;;;;;;;;;;21.52;31.15;98313.28;4917979;29;950;-73
2022/01/02 00:58:26;;;;;;;;;;;;;;;22.16;30.25;98316.72;4861601;29;1277;-73
2022/01/02 01:00:52;;;;;;;;;;;;;;;22.35;30.77;98315.06;4858813;29;1000;-73
2022/01/02 01:03:28;;;;;;;;;;;;;;;22.65;30.09;98328.06;4843338;29;1058;-73
2022/01/02 01:05:53;;;;;;;;;;;;;;;22.44;30.82;98325.78;4843499;29;1915;-73
2022/01/02 01:08:19;;;;;;;;;;;;;;;22.12;31.16;98320.88;4843201;29;880;-73
2022/01/02 01:10:47;;;;;;;;;;;;;;;22.52;30.65;98324.34;4788510;30;1123;-73
2022/01/02 01:13:13;;;;;;;;;;;;;;;22.71;30.44;98323.44;4788457;30;933;-74
2022/01/02 01:15:41;;;;;;;;;;;;;;;22.59;30.44;98316.47;4752155;30;1000;-73
2022/01/02 01:18:07;;;;;;;;;;;;;;;22.52;30.71;98327.19;4735243;30;1044;-74
2022/01/02 01:20:35;;;;;;;;;;;;;;;22.53;30.65;98326.72;4735164;30;1434;-73
2022/01/02 01:23:00;;;;;;;;;;;;;;;22.33;30.45;98338.19;4770227;30;1773;-73
2022/01/02 01:25:26;;;;;;;;;;;;;;;22.30;30.56;98336.22;4726551;30;1900;-74
2022/01/02 01:27:52;;;;;;;;;;;;;;;21.44;31.72;98333.66;4755829;30;1046;-73
2022/01/02 01:30:18;;;;;;;;;;;;;;;22.09;30.99;98333.88;4702916;30;1097;-73
2022/01/02 01:32:43;;;;;;;;;;;;;;;22.21;30.96;98341.69;4717639;30;1377;-73
2022/01/02 01:35:09;;;;;;;;;;;;;;;22.48;30.34;98343.47;4738042;30;1539;-73
2022/01/02 01:37:35;;;;;;;;;;;;;;;22.23;30.62;98344.91;4770695;30;1280;-73
2022/01/02 01:40:00;;;;;;;;;;;;;;;22.38;30.33;98338.88;4788071;29;1332;-73
2022/01/02 01:42:35;;;;;;;;;;;;;;;22.51;30.27;98337.72;4743014;30;1128;-73
2022/01/02 01:47:29;;;;;;;;;;;;;;;22.61;31.14;98336.66;4748832;30;1388;-73
2022/01/02 01:49:54;;;;;;;;;;;;;;;22.14;32.30;98341.88;4734491;30;1343;-73
2022/01/02 01:52:20;;;;;;;;;;;;;;;22.27;31.90;98333.47;4734829;30;1436;-73
2022/01/02 01:54:48;;;;;;;;;;;;;;;21.74;33.00;98324.94;4734673;30;1396;-73
2022/01/02 01:57:13;;;;;;;;;;;;;;;21.44;33.53;98328.00;4734785;30;1234;-73
2022/01/02 01:59:39;;;;;;;;;;;;;;;21.87;32.61;98333.56;4749532;30;1157;-73
2022/01/02 02:02:05;;;;;;;;;;;;;;;22.68;30.31;98330.00;4749263;30;1698;-73
2022/01/02 02:04:31;;;;;;;;;;;;;;;22.39;30.50;98329.94;4784974;29;1985;-73
2022/01/02 02:06:58;;;;;;;;;;;;;;;22.18;30.71;98336.13;4744791;30;1343;-73
2022/01/02 02:09:28;;;;;;;;;;;;;;;22.00;31.40;98347.84;4735044;30;971;-73
2022/01/02 02:11:59;;;;;;;;;;;;;;;21.99;31.83;98346.25;4752288;30;1133;-73
2022/01/02 02:14:25;;;;;;;;;;;;;;;22.33;31.12;98355.19;4772862;30;1240;-73
2022/01/02 02:16:51;;;;;;;;;;;;;;;22.67;30.33;98353.16;4782638;30;1422;-73
2022/01/02 02:19:17;;;;;;;;;;;;;;;22.49;30.93;98357.25;4770449;30;1106;-73
2022/01/02 02:21:43;;;;;;;;;;;;;;;22.83;31.29;98339.75;4781163;30;1704;-73
2022/01/02 02:24:09;;;;;;;;;;;;;;;22.35;32.07;98357.56;4770339;30;1977;-73
2022/01/02 02:26:36;;;;;;;;;;;;;;;21.60;32.74;98362.03;4799021;29;1497;-73
2022/01/02 02:29:02;;;;;;;;;;;;;;;22.29;31.47;98360.16;4809450;29;1211;-73
2022/01/02 02:31:28;;;;;;;;;;;;;;;22.00;31.83;98354.28;4791211;29;1307;-73
2022/01/02 02:33:54;;;;;;;;;;;;;;;22.03;31.96;98358.31;4809363;29;1478;-73
2022/01/02 02:36:21;;;;;;;;;;;;;;;21.69;32.64;98367.94;4794369;29;1167;-73
2022/01/02 02:38:46;;;;;;;;;;;;;;;21.74;32.72;98375.91;4791307;29;980;-73
2022/01/02 02:41:12;;;;;;;;;;;;;;;21.71;32.60;98365.47;4773440;30;1132;-73
2022/01/02 02:51:31;;;;;;;;;;;;;;;22.03;32.56;98386.63;4761020;30;1458;-73
2022/01/02 02:54:00;;;;;;;;;;;;;;;22.84;31.11;98383.88;4773136;30;983;-73
2022/01/02 02:56:29;;;;;;;;;;;;;;;22.27;31.34;98384.47;4777553;29;1537;-73
2022/01/02 02:58:56;;;;;;;;;;;;;;;22.14;30.62;98380.75;4808572;29;1274;-73
2022/01/02 03:01:22;;;;;;;;;;;;;;;22.15;30.62;98394.47;4787324;29;1308;-73
2022/01/02 03:03:50;;;;;;;;;;;;;;;22.09;30.69;98401.88;4791221;29;1916;-73
2022/01/02 03:06:15;;;;;;;;;;;;;;;22.16;31.14;98407.41;4815873;29;1007;-73
2022/01/02 03:08:41;;;;;;;;;;;;;;;22.46;30.49;98409.16;4812030;29;1170;-73
2022/01/02 03:11:13;;;;;;;;;;;;;;;22.54;30.66;98415.47;4809549;29;1211;-73
2022/01/02 03:13:38;;;;;;;;;;;;;;;22.07;31.20;98421.34;4840916;29;1251;-73
2022/01/02 03:16:04;;;;;;;;;;;;;;;22.41;30.83;98423.84;4844445;29;902;-73
2022/01/02 03:18:29;;;;;;;;;;;;;;;21.33;32.38;98430.13;4863799;29;1224;-73
2022/01/02 03:20:55;;;;;;;;;;;;;;;21.40;33.58;98434.84;4881993;29;1078;-73
2022/01/02 03:23:20;;;;;;;;;;;;;;;21.94;32.69;98423.25;4863480;29;1285;-76
2022/01/02 03:25:46;;;;;;;;;;;;;;;22.81;30.67;98435.06;4863386;29;1899;-76
2022/01/02 03:28:11;;;;;;;;;;;;;;;22.47;30.55;98438.31;4863781;29;966;-76
2022/01/02 03:30:37;;;;;;;;;;;;;;;22.08;30.45;98439.97;4863665;29;1050;-73
2022/01/02 03:33:02;;;;;;;;;;;;;;;21.43;32.00;98445.31;4882230;29;1553;-74
2022/01/02 03:35:28;;;;;;;;;;;;;;;22.00;31.60;98439.31;4881853;29;1027;-73
2022/01/02 03:37:53;;;;;;;;;;;;;;;22.34;30.88;98436.16;4881106;29;934;-73
2022/01/02 03:40:19;;;;;;;;;;;;;;;22.45;30.80;98441.59;4866654;29;1266;-73
2022/01/02 03:42:45;;;;;;;;;;;;;;;22.61;30.96;98449.31;4849372;29;1056;-73
2022/01/02 03:45:11;;;;;;;;;;;;;;;22.36;31.52;98447.84;4845022;29;1915;-74
2022/01/02 03:47:36;;;;;;;;;;;;;;;21.97;32.17;98450.72;4826436;29;1243;-73
2022/01/02 03:50:03;;;;;;;;;;;;;;;21.76;32.26;98449.94;4881876;29;1361;-74
2022/01/02 03:52:29;;;;;;;;;;;;;;;22.23;31.13;98458.28;4826086;29;1239;-73
2022/01/02 03:54:54;;;;;;;;;;;;;;;22.13;31.50;98458.53;4825811;29;2146;-73
2022/01/02 03:57:20;;;;;;;;;;;;;;;22.20;31.41;98464.81;4825596;29;1745;-73
2022/01/02 03:59:45;;;;;;;;;;;;;;;22.23;31.46;98463.16;4807919;29;1586;-73
2022/01/02 04:02:11;;;;;;;;;;;;;;;21.23;32.86;98465.06;4808025;29;1061;-73
2022/01/02 04:04:37;;;;;;;;;;;;;;;22.02;31.66;98455.84;4807765;29;1990;-73
2022/01/02 04:07:03;;;;;;;;;;;;;;;22.23;31.20;98471.66;4789697;29;1081;-73
2022/01/02 04:09:29;;;;;;;;;;;;;;;21.92;31.69;98469.03;4789678;29;1026;-74
2022/01/02 04:11:54;;;;;;;;;;;;;;;21.51;32.42;98475.91;4789581;29;1034;-73
2022/01/02 04:14:20;;;;;;;;;;;;;;;21.19;32.89;98470.78;4783027;29;1105;-73
2022/01/02 04:16:45;;;;;;;;;;;;;;;22.15;31.27;98476.66;4771828;30;1413;-73
2022/01/02 04:19:13;;;;;;;;;;;;;;;22.19;31.05;98485.91;4763635;29;1545;-73
2022/01/02 04:21:39;;;;;;;;;;;;;;;21.75;32.03;98490.78;4767051;30;1083;-73
2022/01/02 04:24:04;;;;;;;;;;;;;;;21.60;32.29;98489.47;4743042;30;1903;-73
2022/01/02 04:26:30;;;;;;;;;;;;;;;21.67;32.02;98497.06;4753755;30;1043;-73
2022/01/02 04:28:57;;;;;;;;;;;;;;;22.27;30.60;98498.66;4782124;29;1152;-73
2022/01/02 04:31:22;;;;;;;;;;;;;;;22.33;30.58;98496.94;4780523;30;1246;-74
2022/01/02 04:33:48;;;;;;;;;;;;;;;21.93;30.97;98501.00;4789478;30;978;-73
2022/01/02 04:36:13;;;;;;;;;;;;;;;21.56;32.11;98505.75;4814370;29;1339;-73
2022/01/02 04:38:40;;;;;;;;;;;;;;;21.50;32.02;98507.47;4815976;29;1305;-74
2022/01/02 04:41:06;;;;;;;;;;;;;;;21.94;31.00;98514.72;4816765;29;1377;-73
2022/01/02 04:43:32;;;;;;;;;;;;;;;21.99;30.68;98528.38;4808859;29;1308;-73
2022/01/02 04:45:57;;;;;;;;;;;;;;;22.27;30.43;98518.50;4825408;29;1911;-74
2022/01/02 04:48:23;;;;;;;;;;;;;;;21.83;30.79;98534.75;4807275;29;1061;-73
2022/01/02 04:50:49;;;;;;;;;;;;;;;21.98;30.45;98538.13;4788263;30;1203;-73
2022/01/02 04:53:20;;;;;;;;;;;;;;;22.35;30.04;98539.81;4806816;29;1161;-74
2022/01/02 04:55:45;;;;;;;;;;;;;;;22.39;29.79;98538.97;4807329;29;1064;-73
2022/01/02 04:58:11;;;;;;;;;;;;;;;22.14;30.08;98548.78;4824917;29;1300;-73
2022/01/02 05:00:36;;;;;;;;;;;;;;;21.90;30.33;98541.53;4827638;29;948;-74
2022/01/02 05:03:02;;;;;;;;;;;;;;;21.58;30.89;98545.75;4843636;29;956;-73
2022/01/02 05:05:28;;;;;;;;;;;;;;;21.42;31.39;98545.63;4843133;29;1907;-73
2022/01/02 05:07:55;;;;;;;;;;;;;;;21.90;30.36;98545.16;4843262;29;1446;-73
2022/01/02 05:10:20;;;;;;;;;;;;;;;22.15;29.86;98535.41;4843665;29;1035;-73
2022/01/02 05:12:46;;;;;;;;;;;;;;;21.87;30.44;98542.41;4827984;29;1362;-74
2022/01/02 05:15:15;;;;;;;;;;;;;;;21.65;30.78;98539.94;4843328;29;1011;-73
2022/01/02 05:17:40;;;;;;;;;;;;;;;22.11;29.83;98532.63;4816774;29;964;-73
2022/01/02 05:20:06;;;;;;;;;;;;;;;22.21;29.62;98551.44;4802997;29;1328;-73
2022/01/02 05:22:33;;;;;;;;;;;;;;;22.27;29.93;98549.69;4821503;29;1342;-74
2022/01/02 05:24:58;;;;;;;;;;;;;;;21.61;30.64;98550.56;4806559;29;1912;-73
2022/01/02 05:27:24;;;;;;;;;;;;;;;22.27;29.27;98548.91;4770698;30;1497;-73
2022/01/02 05:29:52;;;;;;;;;;;;;;;21.65;30.66;98558.97;4799566;29;1265;-73
2022/01/02 05:32:17;;;;;;;;;;;;;;;21.95;29.82;98549.53;4788612;29;1124;-73
2022/01/02 05:34:43;;;;;;;;;;;;;;;21.94;29.83;98567.75;4788295;29;1559;-73
2022/01/02 05:37:10;;;;;;;;;;;;;;;22.33;29.33;98565.00;4788417;29;1028;-73
2022/01/02 05:39:37;;;;;;;;;;;;;;;21.24;31.31;98565.69;4798258;29;1133;-73
2022/01/02 05:42:02;;;;;;;;;;;;;;;21.67;30.51;98563.00;4770269;30;995;-74
2022/01/02 05:44:30;;;;;;;;;;;;;;;22.16;29.27;98571.78;4770047;30;1904;-73
2022/01/02 05:46:56;;;;;;;;;;;;;;;21.93;29.87;98569.00;4755566;30;1132;-73
2022/01/02 05:49:22;;;;;;;;;;;;;;;22.18;29.38;98569.34;4770553;30;998;-73
2022/01/02 05:51:48;;;;;;;;;;;;;;;21.68;29.92;98569.44;4787958;30;1079;-73
2022/01/02 05:54:13;;;;;;;;;;;;;;;22.04;29.32;98575.25;4770401;30;1263;-74
2022/01/02 05:56:39;;;;;;;;;;;;;;;22.03;29.51;98585.00;4802441;29;1155;-73
2022/01/02 05:59:05;;;;;;;;;;;;;;;21.74;30.09;98574.19;4810219;29;1160;-73
2022/01/02 06:01:31;;;;;;;;;;;;;;;21.07;31.06;98576.06;4822685;29;1330;-73
2022/01/02 06:03:57;;;;;;;;;;;;;;;22.11;29.12;98580.81;4837925;29;1903;-74
2022/01/02 06:06:24;;;;;;;;;;;;;;;22.07;29.49;98585.69;4846474;29;1251;-73
2022/01/02 06:08:49;;;;;;;;;;;;;;;21.69;29.76;98588.03;4846119;29;1009;-74
2022/01/02 06:11:18;;;;;;;;;;;;;;;21.33;30.65;98589.44;4834492;29;938;-74
2022/01/02 06:13:43;;;;;;;;;;;;;;;21.79;29.85;98596.34;4860862;29;899;-73
2022/01/02 06:16:12;;;;;;;;;;;;;;;21.78;29.86;98597.59;4860520;29;1354;-74
2022/01/02 06:18:38;;;;;;;;;;;;;;;21.77;29.70;98606.53;4864600;29;1043;-73
2022/01/02 06:21:03;;;;;;;;;;;;;;;21.45;30.63;98615.53;4864545;29;885;-73
2022/01/02 06:23:29;;;;;;;;;;;;;;;21.33;30.53;98617.75;4879179;29;928;-73
2022/01/02 06:25:54;;;;;;;;;;;;;;;21.86;29.52;98618.06;4883037;29;1980;-73
2022/01/02 06:28:20;;;;;;;;;;;;;;;22.06;29.17;98623.78;4876235;29;1319;-74
2022/01/02 06:30:45;;;;;;;;;;;;;;;21.84;29.79;98632.69;4866645;29;1229;-72
2022/01/02 06:33:11;;;;;;;;;;;;;;;21.99;29.30;98635.25;4845873;29;1545;-74
2022/01/02 06:35:36;;;;;;;;;;;;;;;22.07;29.47;98642.38;4827636;29;1132;-74
2022/01/02 06:38:15;;;;;;;;;;;;;;;22.01;29.27;98644.91;4809620;29;854;-74
2022/01/02 06:40:42;;;;;;;;;;;;;;;21.49;30.16;98647.44;4806494;29;1315;-73
2022/01/02 06:43:08;;;;;;;;;;;;;;;22.27;29.12;98654.59;4809447;29;931;-73
2022/01/02 06:45:37;;;;;;;;;;;;;;;22.19;28.89;98650.31;4808827;29;1907;-73
2022/01/02 06:48:03;;;;;;;;;;;;;;;21.45;30.19;98660.84;4791106;30;916;-74
2022/01/02 06:50:29;;;;;;;;;;;;;;;21.91;29.36;98662.91;4791261;29;1185;-74
2022/01/02 06:52:55;;;;;;;;;;;;;;;22.09;29.33;98665.44;4755456;30;1158;-74
2022/01/02 06:55:20;;;;;;;;;;;;;;;22.04;29.18;98660.28;4755434;30;1396;-73
2022/01/02 06:57:46;;;;;;;;;;;;;;;21.89;29.58;98670.25;4740479;30;1368;-73
2022/01/02 07:00:13;;;;;;;;;;;;;;;22.17;28.93;98663.28;4720094;30;1326;-74
2022/01/02 07:02:39;;;;;;;;;;;;;;;22.54;28.23;98670.72;4720208;30;1443;-73
2022/01/02 07:05:05;;;;;;;;;;;;;;;22.12;28.87;98667.41;4720193;30;1924;-73
2022/01/02 07:07:30;;;;;;;;;;;;;;;22.26;28.80;98675.66;4702316;30;1133;-73
2022/01/02 07:09:56;;;;;;;;;;;;;;;22.07;29.14;98674.38;4714007;30;1119;-73
2022/01/02 07:12:23;;;;;;;;;;;;;;;21.94;29.09;98678.25;4715102;30;1061;-74
2022/01/02 07:14:49;;;;;;;;;;;;;;;22.39;28.35;98675.84;4736818;30;938;-73
2022/01/02 07:17:14;;;;;;;;;;;;;;;22.21;28.61;98670.50;4755148;30;1012;-73
2022/01/02 07:19:40;;;;;;;;;;;;;;;22.11;28.94;98677.16;4768662;30;970;-74
2022/01/02 07:22:05;;;;;;;;;;;;;;;21.99;29.20;98687.06;4772727;30;886;-73
2022/01/02 07:24:34;;;;;;;;;;;;;;;21.83;29.39;98679.25;4798985;29;1974;-73
2022/01/02 07:26:59;;;;;;;;;;;;;;;22.07;29.00;98688.56;4786068;30;1075;-73
2022/01/02 07:29:25;;;;;;;;;;;;;;;22.11;28.73;98699.84;4790495;30;900;-73
2022/01/02 07:31:50;;;;;;;;;;;;;;;21.81;29.38;98695.88;4790590;30;1118;-73
2022/01/02 07:34:16;;;;;;;;;;;;;;;22.04;28.79;98705.59;4790679;30;855;-73
2022/01/02 07:36:44;;;;;;;;;;;;;;;22.01;28.88;98700.78;4792092;29;993;-74
2022/01/02 07:39:12;;;;;;;;;;;;;;;21.54;29.30;98695.88;4822224;29;1006;-73
2022/01/02 07:41:38;;;;;;;;;;;;;;;21.85;28.83;98688.09;4826553;29;941;-74
2022/01/02 07:44:03;;;;;;;;;;;;;;;21.43;29.82;98688.78;4826616;29;1982;-73
2022/01/02 07:46:31;;;;;;;;;;;;;;;22.07;28.60;98693.41;4826219;29;1083;-73
2022/01/02 07:48:57;;;;;;;;;;;;;;;22.10;28.21;98686.88;4826725;29;853;-74
2022/01/02 07:51:22;;;;;;;;;;;;;;;21.43;29.47;98700.09;4839495;29;914;-73
2022/01/02 07:53:48;;;;;;;;;;;;;;;22.06;28.36;98703.13;4881244;29;972;-74
2022/01/02 07:56:14;;;;;;;;;;;;;;;22.23;28.04;98702.06;4881632;29;1254;-73
2022/01/02 07:58:42;;;;;;;;;;;;;;;22.36;28.03;98705.06;4844436;29;943;-73
2022/01/02 08:01:07;;;;;;;;;;;;;;;21.81;28.55;98710.03;4844836;29;836;-73
2022/01/02 08:03:33;;;;;;;;;;;;;;;21.76;28.71;98702.03;4844287;29;889;-74
2022/01/02 08:05:58;;;;;;;;;;;;;;;22.21;27.95;98704.53;4844467;29;1962;-74
2022/01/02 08:08:24;;;;;;;;;;;;;;;21.97;28.18;98705.75;4859180;29;870;-73
2022/01/02 08:10:49;;;;;;;;;;;;;;;22.15;28.23;98711.13;4862552;29;941;-73
2022/01/02 08:13:15;;;;;;;;;;;;;;;21.52;29.03;98715.34;4890697;29;924;-74
2022/01/02 08:15:40;;;;;;;;;;;;;;;21.87;28.24;98720.88;4900126;29;920;-73
2022/01/02 08:18:05;;;;;;;;;;;;;;;22.01;28.10;98717.78;4899915;29;729;-74
2022/01/02 08:20:31;;;;;;;;;;;;;;;22.29;27.46;98720.19;4899927;29;864;-74
2022/01/02 08:22:57;;;;;;;;;;;;;;;22.08;27.96;98717.69;4900055;29;978;-74
2022/01/02 08:25:22;;;;;;;;;;;;;;;22.21;27.74;98727.19;4868583;29;1946;-74
2022/01/02 08:27:50;;;;;;;;;;;;;;;22.11;27.76;98725.34;4884358;29;959;-74
2022/01/02 08:30:16;;;;;;;;;;;;;;;22.28;27.38;98721.41;4900079;29;884;-74
2022/01/02 08:32:41;;;;;;;;;;;;;;;21.88;28.07;98736.66;4899934;29;832;-73
2022/01/02 08:35:07;;;;;;;;;;;;;;;22.16;27.47;98736.19;4903773;29;783;-74
2022/01/02 08:37:32;;;;;;;;;;;;;;;21.75;28.46;98740.06;4953687;29;1089;-74
2022/01/02 08:39:58;;;;;;;;;;;;;;;21.66;28.41;98737.00;4958783;29;807;-73
2022/01/02 08:42:23;;;;;;;;;;;;;;;21.96;27.96;98746.63;4958992;29;768;-74
2022/01/02 08:44:49;;;;;;;;;;;;;;;22.10;27.73;98755.72;4958640;29;1894;-74
2022/01/02 08:47:14;;;;;;;;;;;;;;;21.87;28.08;98752.06;4958453;29;825;-74
2022/01/02 08:49:40;;;;;;;;;;;;;;;22.21;27.72;98758.38;4918367;29;817;-73
2022/01/02 08:52:05;;;;;;;;;;;;;;;21.56;28.79;98749.28;4918385;29;851;-73
2022/01/02 08:54:30;;;;;;;;;;;;;;;21.55;28.45;98748.47;4918150;29;792;-73
2022/01/02 08:56:59;;;;;;;;;;;;;;;22.04;27.68;98750.94;4902201;29;1002;-73
2022/01/02 08:59:27;;;;;;;;;;;;;;;21.47;28.62;98757.50;4918151;29;986;-74
2022/01/02 09:01:53;;;;;;;;;;;;;;;21.90;28.25;98751.19;4918006;29;959;-73
2022/01/02 09:04:19;;;;;;;;;;;;;;;21.64;28.11;98756.41;4918311;29;1977;-73
2022/01/02 09:06:44;;;;;;;;;;;;;;;21.69;28.44;98770.09;4917839;29;803;-73
2022/01/02 09:09:10;;;;;;;;;;;;;;;21.76;28.13;98758.69;4918414;29;858;-73
2022/01/02 09:11:35;;;;;;;;;;;;;;;22.24;27.49;98765.22;4918230;29;795;-73
2022/01/02 09:14:02;;;;;;;;;;;;;;;21.84;28.12;98767.88;4886575;29;946;-73
2022/01/02 09:16:28;;;;;;;;;;;;;;;21.95;27.93;98762.81;4917709;29;840;-73
2022/01/02 09:18:53;;;;;;;;;;;;;;;22.07;27.83;98764.25;4917665;29;1006;-73
2022/01/02 09:21:19;;;;;;;;;;;;;;;21.92;27.87;98757.22;4927821;28;985;-74
2022/01/02 09:23:44;;;;;;;;;;;;;;;22.07;28.00;98755.75;4975350;28;1080;-74
2022/01/02 09:26:10;;;;;;;;;;;;;;;21.42;28.86;98755.13;4974874;28;1990;-73
2022/01/02 09:28:35;;;;;;;;;;;;;;;22.00;27.86;98750.19;4975382;28;804;-73
2022/01/02 09:31:01;;;;;;;;;;;;;;;21.77;28.41;98753.81;4975136;28;783;-73
2022/01/02 09:33:26;;;;;;;;;;;;;;;21.98;28.03;98747.00;4962642;28;1012;-74
2022/01/02 09:35:52;;;;;;;;;;;;;;;22.12;27.42;98757.31;4957679;28;795;-74
2022/01/02 09:38:17;;;;;;;;;;;;;;;21.99;28.03;98755.06;4958375;29;799;-73
2022/01/02 09:40:42;;;;;;;;;;;;;;;21.54;28.52;98763.03;4957946;29;784;-74
2022/01/02 09:43:08;;;;;;;;;;;;;;;21.42;28.70;98760.81;4957646;29;816;-74
2022/01/02 09:45:35;;;;;;;;;;;;;;;21.30;29.15;98754.47;4957710;29;1906;-74
2022/01/02 09:48:01;;;;;;;;;;;;;;;21.94;28.00;98751.94;4957465;29;1365;-73
2022/01/02 09:50:27;;;;;;;;;;;;;;;21.89;28.13;98752.41;4957693;29;823;-73
2022/01/02 09:52:53;;;;;;;;;;;;;;;21.74;28.47;98749.78;4957424;29;739;-73
2022/01/02 09:55:18;;;;;;;;;;;;;;;21.38;29.10;98751.53;4957703;29;909;-74
2022/01/02 09:57:44;;;;;;;;;;;;;;;21.76;28.38;98747.34;4944803;29;1327;-73
2022/01/02 10:00:10;;;;;;;;;;;;;;;21.53;28.64;98750.91;4938910;29;816;-74
2022/01/02 10:02:55;;;;;;;;;;;;;;;21.81;28.36;98741.22;4938537;29;923;-73
2022/01/02 10:05:24;;;;;;;;;;;;;;;22.01;27.89;98746.13;4938039;29;1988;-73
2022/01/02 10:07:49;;;;;;;;;;;;;;;21.95;28.15;98745.81;4898064;29;1007;-73
2022/01/02 10:10:15;;;;;;;;;;;;;;;22.00;27.71;98738.88;4898560;29;992;-74
2022/01/02 10:12:40;;;;;;;;;;;;;;;22.14;27.76;98733.00;4898429;29;938;-73
2022/01/02 10:15:06;;;;;;;;;;;;;;;22.02;27.81;98742.06;4896930;29;1503;-73
2022/01/02 10:17:50;;;;;;;;;;;;;;;21.99;27.71;98731.59;4917454;29;903;-73
2022/01/02 10:20:15;;;;;;;;;;;;;;;21.73;28.16;98734.03;4917379;29;830;-73
2022/01/02 10:22:59;;;;;;;;;;;;;;;21.89;28.13;98724.88;4885752;29;963;-74
2022/01/02 10:25:37;;;;;;;;;;;;;;;21.71;28.67;98721.50;4917199;29;1974;-74
2022/01/02 10:28:18;;;;;;;;;;;;;;;21.47;28.78;98720.69;4917033;29;861;-73
2022/01/02 10:30:44;;;;;;;;;;;;;;;21.85;28.23;98724.13;4901476;29;721;-74
2022/01/02 10:33:10;;;;;;;;;;;;;;;21.67;28.51;98727.25;4917203;29;824;-74
2022/01/02 10:35:36;;;;;;;;;;;;;;;22.34;27.53;98736.69;4916897;29;867;-73
2022/01/02 10:38:03;;;;;;;;;;;;;;;21.57;28.93;98733.88;4924007;29;886;-73
2022/01/02 10:40:30;;;;;;;;;;;;;;;21.89;28.41;98727.72;4917032;29;1002;-73
2022/01/02 10:42:56;;;;;;;;;;;;;;;22.16;28.02;98724.84;4917158;29;831;-74
2022/01/02 10:45:41;;;;;;;;;;;;;;;22.06;28.23;98709.59;4916698;29;1978;-74
2022/01/02 10:48:10;;;;;;;;;;;;;;;22.30;27.91;98716.09;4919109;29;760;-73
2022/01/02 10:50:36;;;;;;;;;;;;;;;22.11;27.84;98711.19;4920218;29;829;-73
2022/01/02 10:53:12;;;;;;;;;;;;;;;21.96;28.36;98710.59;4904566;29;969;-74
2022/01/02 10:55:37;;;;;;;;;;;;;;;22.13;28.18;98708.72;4920178;29;928;-73
2022/01/02 10:58:05;;;;;;;;;;;;;;;22.18;28.00;98702.56;4916264;29;1295;-74
2022/01/02 11:00:30;;;;;;;;;;;;;;;22.19;28.04;98712.66;4905009;29;969;-73
2022/01/02 11:02:56;;;;;;;;;;;;;;;21.97;28.13;98708.56;4920076;29;823;-74
2022/01/02 11:05:24;;;;;;;;;;;;;;;21.57;29.10;98702.72;4919997;29;1979;-74
2022/01/02 11:07:50;;;;;;;;;;;;;;;21.64;29.24;98705.44;4882345;29;917;-74
2022/01/02 11:10:19;;;;;;;;;;;;;;;22.12;28.13;98700.63;4867130;29;1037;-74
2022/01/02 11:12:45;;;;;;;;;;;;;;;22.27;27.79;98696.31;4920187;29;780;-74
2022/01/02 11:15:11;;;;;;;;;;;;;;;22.03;28.45;98704.00;4920145;29;777;-73
2022/01/02 11:17:36;;;;;;;;;;;;;;;21.54;29.21;98700.75;4920098;29;921;-73
2022/01/02 11:20:03;;;;;;;;;;;;;;;21.81;29.05;98700.72;4920248;29;984;-73
2022/01/02 11:22:31;;;;;;;;;;;;;;;21.97;28.44;98694.41;4920025;29;1084;-73
2022/01/02 11:25:15;;;;;;;;;;;;;;;22.12;28.34;98695.75;4904324;29;1909;-73
2022/01/02 11:27:44;;;;;;;;;;;;;;;21.74;28.85;98695.97;4919864;29;956;-73
2022/01/02 11:30:28;;;;;;;;;;;;;;;21.57;29.52;98700.69;4882038;29;924;-73
2022/01/02 11:33:00;;;;;;;;;;;;;;;21.88;28.90;98692.13;4882467;29;788;-73
2022/01/02 11:35:27;;;;;;;;;;;;;;;22.02;28.65;98702.38;4882585;29;857;-73
2022/01/02 11:37:53;;;;;;;;;;;;;;;22.09;28.56;98696.63;4888476;29;786;-74
2022/01/02 11:40:18;;;;;;;;;;;;;;;22.15;28.23;98700.59;4938763;29;949;-73
2022/01/02 11:42:45;;;;;;;;;;;;;;;21.88;28.85;98697.00;4936262;29;780;-74
2022/01/02 11:45:31;;;;;;;;;;;;;;;22.13;28.39;98693.75;4938718;29;1993;-74
2022/01/02 11:47:56;;;;;;;;;;;;;;;22.24;28.20;98692.31;4881658;29;872;-73
2022/01/02 11:50:31;;;;;;;;;;;;;;;21.72;28.75;98689.94;4881941;29;900;-73
2022/01/02 11:53:18;;;;;;;;;;;;;;;21.62;29.40;98693.75;4881652;29;887;-73
2022/01/02 11:55:44;;;;;;;;;;;;;;;21.78;28.75;98691.06;4881601;29;788;-73
2022/01/02 11:58:09;;;;;;;;;;;;;;;22.14;28.57;98687.66;4881653;29;1117;-74
2022/01/02 12:00:37;;;;;;;;;;;;;;;22.12;28.38;98684.44;4886263;29;1064;-74
2022/01/02 12:03:03;;;;;;;;;;;;;;;22.10;28.11;98686.88;4900360;29;804;-73
2022/01/02 12:05:28;;;;;;;;;;;;;;;21.60;29.19;98690.53;4900163;29;1977;-74
2022/01/02 12:07:53;;;;;;;;;;;;;;;21.82;28.99;98686.16;4862724;29;915;-74
2022/01/02 12:10:20;;;;;;;;;;;;;;;22.09;28.30;98686.06;4862904;29;929;-73
2022/01/02 12:12:58;;;;;;;;;;;;;;;22.29;28.13;98691.81;4863081;29;890;-73
2022/01/02 12:15:43;;;;;;;;;;;;;;;22.34;27.97;98694.16;4844517;29;1112;-73
2022/01/02 12:18:12;;;;;;;;;;;;;;;22.36;27.97;98688.84;4844148;29;873;-73
2022/01/02 12:20:50;;;;;;;;;;;;;;;21.52;29.52;98689.06;4825792;29;900;-73
2022/01/02 12:23:30;;;;;;;;;;;;;;;22.12;28.27;98694.97;4826106;29;997;-73
2022/01/02 12:25:59;;;;;;;;;;;;;;;22.09;28.45;98690.94;4874076;29;1911;-74
2022/01/02 12:28:24;;;;;;;;;;;;;;;21.99;28.79;98687.06;4881319;29;804;-73
2022/01/02 12:30:51;;;;;;;;;;;;;;;22.09;28.34;98690.94;4862116;29;936;-73
2022/01/02 12:33:26;;;;;;;;;;;;;;;22.09;28.30;98691.75;4880948;29;928;-73
2022/01/02 12:35:52;;;;;;;;;;;;;;;21.99;28.69;98686.25;4843912;29;995;-73
2022/01/02 12:38:17;;;;;;;;;;;;;;;21.97;28.80;98685.91;4839112;29;875;-73
2022/01/02 12:40:43;;;;;;;;;;;;;;;21.84;28.78;98683.66;4825983;29;931;-73
2022/01/02 12:43:11;;;;;;;;;;;;;;;21.87;28.88;98681.22;4825824;29;816;-73
2022/01/02 12:45:37;;;;;;;;;;;;;;;21.61;29.29;98683.66;4825548;29;1907;-73
2022/01/02 12:48:02;;;;;;;;;;;;;;;22.13;29.17;98683.22;4825487;29;929;-74
2022/01/02 12:50:29;;;;;;;;;;;;;;;22.80;28.41;98683.16;4825732;29;950;-74
2022/01/02 12:52:55;;;;;;;;;;;;;;;22.57;28.35;98681.97;4844336;29;848;-73
2022/01/02 12:55:20;;;;;;;;;;;;;;;22.14;28.88;98687.66;4843787;29;913;-74
2022/01/02 12:57:46;;;;;;;;;;;;;;;21.96;29.26;98687.13;4827915;29;1544;-74
2022/01/02 13:00:12;;;;;;;;;;;;;;;21.93;28.89;98671.00;4843685;29;706;-73
2022/01/02 13:02:37;;;;;;;;;;;;;;;22.16;28.52;98685.16;4858603;29;972;-74
2022/01/02 13:05:03;;;;;;;;;;;;;;;22.27;28.59;98682.94;4892441;29;1918;-73
2022/01/02 13:07:30;;;;;;;;;;;;;;;22.22;28.75;98689.09;4896176;29;884;-74
2022/01/02 13:09:56;;;;;;;;;;;;;;;21.81;29.36;98673.22;4921391;29;1049;-73